»·PEaware :: DAL213 KPSP-KLAS

DAL213 :: KPSP-KLAS

FLIGHT INFORMATION

Flight Status: Arrived
Operator:
Delta Air Lines
More flights by this operator :: More flights under this callsign
Pilot: Nicolas L. (9332)
Aircraft: BOEING 737-800
(B738)
More flights by this aircraft type
Origin: KPSP Palm Springs Intl
United States
Destination: KLAS McCarran Intl
United States
More flights between these airports :: More routes between these airports
Route: +CATH1 PSP V370 TNP KEPEC6
File this flight plan on PilotEdge
Remarks: Live Streaming on Twith "DAL213" and YT
Altitude:
(Current/Filed)
21,000ft
Speed:
(Current/Filed)
400kts
Departed: 25-Jul-18 08:06 PM
Arrived: 25-Jul-18 08:38 PM
Distance/Time
Traveled:
151nm/0:32
Distance/Time
To Go:
Arrived

Flight Plot

Page will automatically refresh every two minutes.

Flight plan parsing failed; only flown route is shown


Map Options




Map Legend


Flown Route
Filed Route
Departure Airport
Arrival Airport
Navaid (VOR, NDB)
Fix

Horizontal Profiles

Position Reports

Time Latitude Longitude Heading Altitude Ground
Speed
25-Jul-18 19:37 33.823418 -116.505900 245 486ft 0kts
25-Jul-18 19:38 33.823418 -116.505900 245 486ft 0kts
25-Jul-18 19:39 33.823418 -116.505900 245 486ft 0kts
25-Jul-18 19:40 33.823418 -116.505900 245 486ft 0kts
25-Jul-18 19:41 33.823418 -116.505900 245 486ft 0kts
25-Jul-18 19:42 33.823418 -116.505900 245 486ft 0kts
25-Jul-18 19:43 33.823418 -116.505900 245 486ft 0kts
25-Jul-18 19:44 33.823418 -116.505900 245 486ft 0kts
25-Jul-18 19:45 33.823418 -116.505900 245 486ft 0kts
25-Jul-18 19:46 33.823418 -116.505900 245 486ft 0kts
25-Jul-18 19:47 33.823418 -116.505900 245 486ft 0kts
25-Jul-18 19:48 33.823418 -116.505900 245 486ft 0kts
25-Jul-18 19:49 33.823418 -116.505900 245 486ft 0kts
25-Jul-18 19:50 33.823418 -116.505900 245 486ft 0kts
25-Jul-18 19:51 33.823418 -116.505900 245 486ft 0kts
25-Jul-18 19:52 33.823418 -116.505900 245 486ft 0kts
25-Jul-18 19:53 33.823772 -116.505437 204 486ft 2kts
25-Jul-18 19:54 33.823915 -116.505379 191 486ft 0kts
25-Jul-18 19:55 33.823915 -116.505379 191 486ft 0kts
25-Jul-18 19:56 33.823915 -116.505379 191 486ft 0kts
25-Jul-18 19:57 33.823915 -116.505379 191 486ft 0kts
25-Jul-18 19:58 33.823915 -116.505379 191 486ft 0kts
25-Jul-18 19:59 33.823915 -116.505379 191 486ft 0kts
25-Jul-18 20:00 33.823915 -116.505379 191 486ft 0kts
25-Jul-18 20:01 33.823915 -116.505379 191 486ft 0kts
25-Jul-18 20:02 33.823915 -116.505379 191 486ft 0kts
25-Jul-18 20:03 33.823915 -116.505379 191 486ft 0kts
25-Jul-18 20:04 33.823280 -116.504811 128 486ft 13kts
25-Jul-18 20:05 33.820432 -116.501498 143 486ft 16kts
25-Jul-18 20:06 33.818495 -116.498963 83 486ft 0kts
25-Jul-18 20:07 33.824106 -116.502749 325 486ft 102kts
25-Jul-18 20:08 33.859488 -116.534067 322 2201ft 179kts
25-Jul-18 20:09 33.907649 -116.570025 352 4226ft 238kts
25-Jul-18 20:10 33.946443 -116.508038 102 6459ft 295kts
25-Jul-18 20:11 33.967560 -116.414092 69 9391ft 306kts
25-Jul-18 20:12 33.992591 -116.309578 73 11226ft 354kts
25-Jul-18 20:13 34.018899 -116.192520 74 13919ft 367kts
25-Jul-18 20:14 34.045813 -116.071465 74 16419ft 381kts
25-Jul-18 20:15 34.073677 -115.945450 75 18802ft 395kts
25-Jul-18 20:16 34.107748 -115.817338 55 20831ft 412kts
25-Jul-18 20:17 34.203521 -115.736071 29 20954ft 435kts
25-Jul-18 20:18 34.308770 -115.662882 29 20961ft 437kts
25-Jul-18 20:19 34.413809 -115.589605 29 20967ft 435kts
25-Jul-18 20:20 34.518925 -115.515989 30 20939ft 436kts
25-Jul-18 20:21 34.623628 -115.442456 30 20945ft 435kts
25-Jul-18 20:22 34.728602 -115.368727 27 20913ft 436kts
25-Jul-18 20:23 34.845763 -115.357928 342 20915ft 435kts
25-Jul-18 20:24 34.960647 -115.402674 342 20893ft 433kts
25-Jul-18 20:25 35.075821 -115.447195 341 20915ft 433kts
25-Jul-18 20:26 35.190769 -115.491475 342 20960ft 434kts
25-Jul-18 20:27 35.305133 -115.535679 342 19925ft 424kts
25-Jul-18 20:28 35.415243 -115.576247 355 17889ft 400kts
25-Jul-18 20:29 35.510357 -115.524286 32 16405ft 365kts
25-Jul-18 20:30 35.592179 -115.457356 37 14737ft 343kts
25-Jul-18 20:31 35.664404 -115.394477 31 13505ft 302kts
25-Jul-18 20:32 35.732731 -115.340834 31 11563ft 288kts
25-Jul-18 20:33 35.800387 -115.287573 31 9023ft 288kts
25-Jul-18 20:34 35.867190 -115.234894 30 7370ft 282kts
25-Jul-18 20:35 35.940781 -115.206060 14 6470ft 270kts
25-Jul-18 20:36 36.003465 -115.187460 8 4800ft 203kts
25-Jul-18 20:37 36.053629 -115.176327 13 2928ft 158kts
25-Jul-18 20:38 36.086043 -115.160736 23 2190ft 50kts
25-Jul-18 20:39 36.087628 -115.155943 92 2190ft 8kts
25-Jul-18 20:40 36.087714 -115.153893 155 2190ft 5kts
25-Jul-18 20:41 36.087079 -115.153526 156 2190ft 0kts
25-Jul-18 20:42 36.087079 -115.153526 156 2190ft 0kts
25-Jul-18 20:43 36.087079 -115.153526 156 2190ft 0kts
25-Jul-18 20:44 36.087079 -115.153526 156 2190ft 0kts
25-Jul-18 20:45 36.087079 -115.153526 156 2190ft 0kts
25-Jul-18 20:46 36.087079 -115.153526 156 2190ft 0kts
25-Jul-18 20:47 36.087079 -115.153526 156 2190ft 0kts

Navigation Log

Ident Type
Flight plan parsing failed, navigation log unavailable